ADDS METAR Data INFO
IDs: Format: Raw Decoded Include TAF

Data at: 2324 UTC 19 Oct 2017

KBKS 192315Z AUTO 09007KT 10SM BKN040 OVC055 26/20 A3000 RMK AO1 T02600198
KBKS 192255Z AUTO 10008KT 10SM SCT038 OVC055 26/20 A3000 RMK AO1 T02580200
KBKS 192235Z AUTO 10007KT 10SM SCT032 BKN040 OVC055 27/21 A3000 RMK AO1 T02660205
KBKS 192215Z AUTO 13007KT 10SM SCT032 SCT046 BKN060 28/20 A3000 RMK AO1 T02810198
KBKS 192155Z AUTO 14008KT 10SM SCT033 SCT042 SCT060 29/20 A3000 RMK AO1 T02850201
KBKS 192135Z AUTO 11008KT 10SM SCT037 OVC042 28/20 A3000 RMK AO1 T02780199
KBKS 192115Z AUTO 15008KT 10SM BKN046 BKN060 28/20 A3001 RMK AO1 T02770200
KBKS 192055Z AUTO 15010KT 110V170 10SM SCT048 BKN050 BKN075 29/19 A3000 RMK AO1 T02930186
KBKS 192035Z AUTO 12006KT 10SM OVC050 28/18 A3001 RMK AO1 T02810180
KBKS 192015Z AUTO 11007KT 10SM SCT032 SCT038 OVC050 29/20 A3001 RMK AO1 T02850196
KBKS 191955Z AUTO 00000KT 10SM SCT036 BKN043 OVC050 28/20 A3001 RMK AO1 T02780195
KBKS 191935Z AUTO 00000KT 10SM SCT037 OVC046 28/19 A3002 RMK AO1 T02750191
KBKS 191915Z AUTO 00000KT 10SM BKN048 OVC050 28/19 A3003 RMK AO1 T02780187
KBKS 191855Z AUTO 00000KT 10SM BKN046 OVC050 28/19 A3003 RMK AO1 T02810191
KBKS 191835Z AUTO 10003KT 10SM OVC046 28/19 A3005 RMK AO1 T02750191
KBKS 191815Z AUTO 04005KT 10SM SCT034 OVC050 28/19 A3006 RMK AO1 T02750193
KBKS 191755Z AUTO 06006KT 10SM SCT034 SCT044 OVC060 28/19 A3006 RMK AO1 T02760193 10286 20166
KBKS 191735Z AUTO 12003KT 10SM OVC060 28/19 A3007 RMK AO1 T02820191
KBKS 191715Z AUTO 00000KT 10SM OVC050 28/19 A3008 RMK AO1 T02810190
KBKS 191655Z AUTO 00000KT 10SM SCT030 BKN055 28/19 A3008 RMK AO1 T02780186
KBKS 191635Z AUTO 15006KT 10SM BKN028 BKN033 BKN065 28/20 A3008 RMK AO1 T02820196
KBKS 191615Z AUTO 00000KT 10SM SCT026 28/20 A3008 RMK AO1 T02750199
KBKS 191555Z AUTO 00000KT 10SM CLR 27/20 A3009 RMK AO1 T02680196
KBKS 191535Z AUTO 00000KT 10SM CLR 26/20 A3009 RMK AO1 T02610195
KBKS 191515Z AUTO 00000KT 10SM CLR 25/19 A3008 RMK AO1 T02500192
KBKS 191455Z AUTO 00000KT 10SM CLR 24/19 A3008 RMK AO1 T02400190
KBKS 191435Z AUTO 00000KT 10SM CLR 22/19 A3008 RMK AO1 T02240186
KBKS 191415Z AUTO 00000KT 10SM CLR 21/18 A3007 RMK AO1 T02070178
KBKS 191355Z AUTO 00000KT 10SM SCT032 19/17 A3007 RMK AO1 T01920171
KBKS 191335Z AUTO 00000KT 10SM SCT030 18/17 A3006 RMK AO1 T01810165
KBKS 191315Z AUTO 00000KT 10SM CLR 17/16 A3006 RMK AO1 T01710157
KBKS 191255Z AUTO 00000KT 10SM CLR 17/15 A3005 RMK AO1 T01670154
KBKS 191235Z AUTO 00000KT 10SM CLR 17/16 A3005 RMK AO1 T01700155
KBKS 191215Z AUTO 00000KT 10SM CLR 17/15 A3005 RMK AO1 T01680154
KBKS 191155Z AUTO 00000KT 10SM SCT026 SCT032 SCT039 17/16 A3004 RMK AO1 T01700155 10177 20165
KBKS 191135Z AUTO 00000KT 10SM SCT029 SCT040 17/16 A3005 RMK AO1 T01670155
KBKS 191115Z AUTO 00000KT 10SM SCT031 SCT037 17/15 A3004 RMK AO1 T01660153
KBKS 191055Z AUTO 00000KT 10SM CLR 17/16 A3005 RMK AO1 T01690155
KBKS 191035Z AUTO 00000KT 10SM CLR 17/16 A3005 RMK AO1 T01690155
KBKS 191015Z AUTO 00000KT 10SM CLR 17/15 A3004 RMK AO1 T01650152
KBKS 190955Z AUTO 00000KT 10SM CLR 17/15 A3005 RMK AO1 T01700153
KBKS 190935Z AUTO 00000KT 10SM CLR 17/16 A3005 RMK AO1 T01710156
KBKS 190915Z AUTO 00000KT 10SM CLR 17/16 A3005 RMK AO1 T01700155
KBKS 190855Z AUTO 00000KT 10SM CLR 17/16 A3005 RMK AO1 T01710157
KBKS 190835Z AUTO 00000KT 10SM CLR 17/16 A3006 RMK AO1 T01710157
KBKS 190815Z AUTO 00000KT 10SM CLR 17/16 A3006 RMK AO1 T01710158
KBKS 190755Z AUTO 00000KT 10SM CLR 17/16 A3007 RMK AO1 T01710156
KBKS 190735Z AUTO 00000KT 10SM CLR 17/15 A3007 RMK AO1 T01670151
KBKS 190715Z AUTO 00000KT 10SM SCT029 17/15 A3007 RMK AO1 T01700152
KBKS 190655Z AUTO 00000KT 10SM SCT029 18/16 A3007 RMK AO1 T01750155
KBKS 190635Z AUTO 00000KT 10SM SCT029 17/15 A3008 RMK AO1 T01730154
KBKS 190615Z AUTO 00000KT 10SM CLR 17/15 A3008 RMK AO1 T01740154
KBKS 190555Z AUTO 00000KT 10SM CLR 17/15 A3009 RMK AO1 T01710152 10251 20171 403030120
KBKS 190535Z AUTO 00000KT 10SM CLR 18/15 A3009 RMK AO1 T01790154
KBKS 190515Z AUTO 00000KT 10SM CLR 18/16 A3009 RMK AO1 T01800156
KBKS 190455Z AUTO 00000KT 10SM CLR 18/16 A3009 RMK AO1 T01770155
KBKS 190435Z AUTO 00000KT 10SM CLR 18/16 A3009 RMK AO1 T01810156
KBKS 190415Z AUTO 00000KT 10SM CLR 18/15 A3009 RMK AO1 T01810152
KBKS 190355Z AUTO 00000KT 10SM CLR 18/15 A3009 RMK AO1 T01810153
KBKS 190335Z AUTO 00000KT 10SM CLR 19/16 A3009 RMK AO1 T01860155
KBKS 190315Z AUTO 00000KT 10SM CLR 19/16 A3009 RMK AO1 T01920155
KBKS 190255Z AUTO 00000KT 10SM CLR 20/16 A3009 RMK AO1 T01960155
KBKS 190235Z AUTO 00000KT 10SM CLR 20/16 A3009 RMK AO1 T02010156
KBKS 190215Z AUTO 00000KT 10SM CLR 20/16 A3008 RMK AO1 T02000155
KBKS 190155Z AUTO 00000KT 10SM CLR 21/15 A3008 RMK AO1 T02060152
KBKS 190135Z AUTO 00000KT 10SM CLR 21/15 A3008 RMK AO1 T02070151
KBKS 190115Z AUTO 00000KT 10SM CLR 21/15 A3007 RMK AO1 T02130149
KBKS 190055Z AUTO 09004KT 10SM CLR 22/15 A3007 RMK AO1 T02200147
KBKS 190035Z AUTO 09004KT 10SM CLR 23/15 A3006 RMK AO1 T02280145
KBKS 190015Z AUTO 09004KT 10SM CLR 24/14 A3005 RMK AO1 T02400144
KBKS 182355Z AUTO 09006KT 10SM CLR 25/14 A3005 RMK AO1 T02530143 10303 20253
KBKS 182335Z AUTO 08007KT 10SM CLR 27/14 A3005 RMK AO1 T02650140
KBKS 182315Z AUTO 08009KT 10SM CLR 28/14 A3004 RMK AO1 T02760141
KBKS 182255Z AUTO 09008KT 10SM CLR 29/14 A3004 RMK AO1 T02880135
KBKS 182235Z AUTO 06008KT 10SM CLR 29/13 A3004 RMK AO1 T02920131
KBKS 182215Z AUTO 11005KT 10SM CLR 30/12 A3004 RMK AO1 T02970117
KBKS 182155Z AUTO 12003KT 10SM CLR 30/11 A3005 RMK AO1 T03020110
KBKS 182135Z AUTO 13004KT 10SM CLR 30/11 A3004 RMK AO1 T02990111
KBKS 182115Z AUTO 12005KT 10SM CLR 30/11 A3005 RMK AO1 T02990111
KBKS 182055Z AUTO 11006KT 10SM CLR 30/12 A3005 RMK AO1 T02990120
KBKS 182035Z AUTO 15006KT 10SM CLR 29/12 A3006 RMK AO1 T02940116
KBKS 182015Z AUTO 16003KT 10SM CLR 29/12 A3006 RMK AO1 T02940115
KBKS 181955Z AUTO 00000KT 10SM CLR 29/11 A3006 RMK AO1 T02910111
KBKS 181935Z AUTO 16004KT 10SM CLR 29/12 A3008 RMK AO1 T02860120
KBKS 181915Z AUTO 00000KT 10SM CLR 28/12 A3009 RMK AO1 T02820120
KBKS 181855Z AUTO 00000KT 10SM CLR 28/12 A3010 RMK AO1 T02820120
KBKS 181835Z AUTO 00000KT 10SM CLR 27/12 A3011 RMK AO1 T02720119
KBKS 181815Z AUTO 07006KT 10SM CLR 28/12 A3012 RMK AO1 T02770122
KBKS 181755Z AUTO 15005KT 10SM CLR 27/13 A3013 RMK AO1 T02740130 10274 20120
KBKS 181735Z AUTO 08006KT 10SM CLR 27/13 A3014 RMK AO1 T02680129
KBKS 181715Z AUTO 00000KT 10SM CLR 26/13 A3015 RMK AO1 T02580132
KBKS 181655Z AUTO 13004KT 10SM CLR 26/13 A3016 RMK AO1 T02590131
KBKS 181635Z AUTO 00000KT 10SM CLR 25/14 A3016 RMK AO1 T02540141
KBKS 181615Z AUTO 00000KT 10SM CLR 25/15 A3016 RMK AO1 T02470147
KBKS 181555Z AUTO 00000KT 10SM CLR 25/15 A3017 RMK AO1 T02450150
KBKS 181535Z AUTO 00000KT 10SM CLR 23/15 A3017 RMK AO1 T02330149
KBKS 181515Z AUTO 00000KT 10SM CLR 22/15 A3017 RMK AO1 T02180148
KBKS 181455Z AUTO 00000KT 10SM CLR 20/15 A3017 RMK AO1 T02010146
KBKS 181435Z AUTO 00000KT 10SM CLR 18/14 A3017 RMK AO1 T01840143
KBKS 181415Z AUTO 00000KT 10SM CLR 17/14 A3016 RMK AO1 T01650135
KBKS 181355Z AUTO 00000KT 10SM CLR 15/13 A3015 RMK AO1 T01510126
KBKS 181335Z AUTO 00000KT 10SM CLR 14/12 A3015 RMK AO1 T01360117
KBKS 181315Z AUTO 00000KT 10SM CLR 13/11 A3014 RMK AO1 T01260110
KBKS 181255Z AUTO 00000KT 10SM CLR 12/11 A3014 RMK AO1 T01230107
KBKS 181235Z AUTO 00000KT 10SM CLR 12/11 A3013 RMK AO1 T01200105
KBKS 181215Z AUTO 00000KT 10SM CLR 12/11 A3013 RMK AO1 T01200106
KBKS 181155Z AUTO 00000KT 10SM CLR 12/11 A3012 RMK AO1 7//// T01200105 10145 20120
KBKS 181135Z AUTO 00000KT 10SM CLR 12/11 A3012 RMK AO1 T01210107